Time;durP1;ratioP1;P1;durP2;ratioP2;P2;SDS_P1;SDS_P2;PMS_P1;PMS_P2;Temp;Humidity;BMP_temperature;BMP_pressure;BME280_temperature;BME280_humidity;BME280_pressure;Samples;Min_cycle;Max_cycle;Signal;HPM_P1;HPM_P2
2022/10/05 00:01:28;;;;;;;17.80;10.98;;;;;;;19.45;85.62;101781.63;5112461;28;20409;-68
2022/10/05 00:04:05;;;;;;;17.48;11.18;;;;;;;19.48;85.61;101783.81;5112155;28;20047;-68
2022/10/05 00:06:36;;;;;;;17.58;10.23;;;;;;;19.46;84.48;101786.88;5093895;28;20044;-68
2022/10/05 00:09:15;;;;;;;17.80;10.23;;;;;;;19.47;84.51;101794.06;5112150;28;20043;-68
2022/10/05 00:11:44;;;;;;;18.38;10.85;;;;;;;19.53;84.92;101796.75;5112099;28;20100;-68
2022/10/05 00:14:19;;;;;;;17.48;11.23;;;;;;;19.51;85.00;101805.41;5112249;28;20036;-68
2022/10/05 00:16:47;;;;;;;16.02;10.18;;;;;;;19.46;84.26;101798.00;5111700;28;20055;-68
2022/10/05 00:19:25;;;;;;;16.55;10.27;;;;;;;19.46;85.18;101805.50;5111172;28;20394;-68
2022/10/05 00:21:58;;;;;;;17.30;9.98;;;;;;;19.39;85.74;101803.16;5110977;28;20411;-68
2022/10/05 00:24:26;;;;;;;14.80;10.20;;;;;;;19.32;84.60;101802.75;5094351;28;20047;-68
2022/10/05 00:26:54;;;;;;;15.68;10.48;;;;;;;19.40;85.00;101809.53;5111373;28;20055;-68
2022/10/05 00:29:24;;;;;;;14.18;9.88;;;;;;;19.40;84.80;101809.53;5094476;28;20050;-68
2022/10/05 00:31:52;;;;;;;16.38;9.63;;;;;;;19.44;84.36;101807.75;5111464;28;20510;-68
2022/10/05 00:34:20;;;;;;;17.67;9.55;;;;;;;19.42;83.45;101807.25;5111733;28;20056;-68
2022/10/05 00:36:51;;;;;;;17.95;9.73;;;;;;;19.36;85.24;101806.56;5094017;28;20031;-68
2022/10/05 00:39:19;;;;;;;13.48;9.07;;;;;;;19.26;84.71;101807.56;5112031;28;20039;-68
2022/10/05 00:42:16;;;;;;;13.02;8.98;;;;;;;19.40;83.40;101803.97;5093064;28;20050;-68
2022/10/05 00:45:01;;;;;;;11.25;8.23;;;;;;;19.32;83.04;101803.56;5112141;28;20398;-68
2022/10/05 00:47:28;;;;;;;11.38;7.85;;;;;;;19.27;82.48;101802.84;5110344;28;20071;-68
2022/10/05 00:50:21;;;;;;;14.10;8.25;;;;;;;19.27;82.50;101795.38;5073910;28;20047;-68
2022/10/05 00:53:17;;;;;;;12.57;7.28;;;;;;;19.22;83.03;101803.78;5101327;28;20494;-68
2022/10/05 00:55:57;;;;;;;16.02;7.60;;;;;;;19.23;83.40;101804.59;5111335;28;20483;-68
2022/10/05 00:58:49;;;;;;;13.25;8.85;;;;;;;19.29;83.08;101801.41;5093008;28;20057;-68
2022/10/05 01:01:31;;;;;;;11.27;7.65;;;;;;;19.28;82.89;101794.22;5100849;28;20486;-68
2022/10/05 01:04:11;;;;;;;10.20;7.53;;;;;;;19.18;82.46;101802.75;5112246;28;20043;-68
2022/10/05 01:07:03;;;;;;;9.45;6.88;;;;;;;19.30;81.42;101800.28;5099707;28;20082;-68
2022/10/05 01:09:44;;;;;;;10.30;6.82;;;;;;;19.35;81.86;101799.34;5098947;28;20051;-68
2022/10/05 01:12:45;;;;;;;13.15;7.40;;;;;;;19.33;81.00;101796.06;5111749;28;20062;-68
2022/10/05 01:15:30;;;;;;;10.30;7.10;;;;;;;19.26;81.51;101792.88;5120659;28;20059;-68
2022/10/05 01:18:13;;;;;;;9.32;6.80;;;;;;;19.22;80.70;101797.41;5070285;28;20056;-68
2022/10/05 01:21:05;;;;;;;9.57;6.53;;;;;;;19.20;80.84;101801.31;5106060;28;20048;-68
2022/10/05 01:23:54;;;;;;;8.32;6.53;;;;;;;19.18;80.82;101797.22;5101740;28;20079;-68
2022/10/05 01:26:55;;;;;;;8.52;6.78;;;;;;;19.20;80.71;101794.94;5110407;28;20047;-68
2022/10/05 01:29:41;;;;;;;10.40;6.45;;;;;;;19.16;80.34;101789.19;5111711;28;20048;-68
2022/10/05 01:32:09;;;;;;;12.18;6.40;;;;;;;19.18;81.00;101791.66;5093934;28;20059;-68
2022/10/05 01:34:42;;;;;;;7.88;5.65;;;;;;;19.16;80.31;101789.19;5092320;28;20040;-68
2022/10/05 01:37:16;;;;;;;8.93;5.90;;;;;;;19.16;80.21;101793.94;5125940;27;20054;-68
2022/10/05 01:40:00;;;;;;;9.40;6.43;;;;;;;19.14;79.58;101797.00;5080629;28;20044;-68
2022/10/05 01:42:43;;;;;;;9.10;6.07;;;;;;;19.14;79.49;101798.94;5103672;28;20070;-68
2022/10/05 01:45:36;;;;;;;9.52;6.78;;;;;;;19.14;79.90;101798.94;5097521;28;20066;-68
2022/10/05 01:48:21;;;;;;;9.93;6.30;;;;;;;19.14;79.44;101798.94;5096656;28;20046;-68
2022/10/05 01:50:51;;;;;;;;;;;;;;;19.22;79.24;101798.25;5102329;28;20047;-68
2022/10/05 01:53:45;;;;;;;10.85;6.18;;;;;;;19.27;79.29;101798.13;5114380;28;19924;-68
2022/10/05 01:56:16;;;;;;;10.93;6.65;;;;;;;19.28;80.41;101797.00;5096755;28;20054;-68
2022/10/05 01:58:59;;;;;;;12.52;6.10;;;;;;;19.25;79.96;101796.81;5080075;28;20047;-68
2022/10/05 02:01:40;;;;;;;9.68;6.75;;;;;;;19.24;79.76;101801.53;5115242;28;20054;-68
2022/10/05 02:04:17;;;;;;;9.55;6.20;;;;;;;19.23;79.54;101799.88;5097031;28;20405;-68
2022/10/05 02:07:15;;;;;;;7.95;6.35;;;;;;;19.22;79.60;101798.25;5130030;27;20044;-68
2022/10/05 02:09:58;;;;;;;8.52;6.78;;;;;;;19.25;79.85;101803.16;5115356;28;20401;-68
2022/10/05 02:12:30;;;;;;;9.48;6.70;;;;;;;19.25;80.63;101805.13;5114253;28;20609;-68
2022/10/05 02:15:19;;;;;;;7.95;6.25;;;;;;;19.23;80.20;101805.44;5096421;28;20062;-68
2022/10/05 02:17:52;;;;;;;12.02;6.72;;;;;;;19.24;79.68;101798.75;5113800;28;20394;-68
2022/10/05 02:20:27;;;;;;;8.75;6.53;;;;;;;19.17;80.89;101804.69;5096711;28;20043;-68
2022/10/05 02:23:04;;;;;;;7.90;6.53;;;;;;;19.19;80.58;101799.69;5114738;28;20048;-68
2022/10/05 02:25:33;;;;;;;;;;;;;;;19.18;81.35;101797.22;5095869;28;20450;-68
2022/10/05 02:28:09;;;;;;;10.70;5.82;;;;;;;19.27;80.31;101795.38;5130502;27;20279;-69
2022/10/05 02:30:57;;;;;;;8.88;6.93;;;;;;;19.27;81.44;101784.25;5096555;28;20048;-69
2022/10/05 02:33:31;;;;;;;10.23;6.45;;;;;;;19.25;80.59;101792.06;5102124;28;20050;-68
2022/10/05 02:36:12;;;;;;;11.18;6.22;;;;;;;19.27;79.75;101783.44;5095372;28;20047;-69
2022/10/05 02:38:46;;;;;;;7.45;5.80;;;;;;;19.27;79.20;101784.25;5095953;28;20101;-68
2022/10/05 02:41:46;;;;;;;7.72;5.20;;;;;;;19.25;79.20;101780.97;5096558;28;20043;-68
2022/10/05 02:44:26;;;;;;;6.97;5.47;;;;;;;19.26;79.42;101777.03;5111280;28;20039;-68
2022/10/05 02:47:32;;;;;;;8.90;5.75;;;;;;;19.09;79.16;101777.69;5106554;28;20494;-68
2022/10/05 02:50:12;;;;;;;9.50;5.57;;;;;;;19.18;78.37;101778.63;5123931;27;20047;-68
2022/10/05 02:53:31;;;;;;;7.25;5.75;;;;;;;18.99;78.55;101772.31;5096268;28;20043;-68
2022/10/05 02:56:11;;;;;;;8.20;5.35;;;;;;;18.96;78.36;101779.28;5088294;28;20055;-68
2022/10/05 02:58:50;;;;;;;6.97;5.47;;;;;;;19.05;78.28;101777.50;5114293;28;20508;-68
2022/10/05 03:01:26;;;;;;;10.55;5.55;;;;;;;19.04;78.06;101775.00;5095143;28;20066;-68
2022/10/05 03:04:33;;;;;;;7.22;5.38;;;;;;;19.00;78.61;101773.94;5092136;28;20062;-68
2022/10/05 03:07:16;;;;;;;8.82;5.78;;;;;;;19.03;77.77;101768.66;5103052;28;20048;-69
2022/10/05 03:09:58;;;;;;;8.52;6.35;;;;;;;18.89;79.01;101773.34;5095907;28;20047;-68
2022/10/05 03:12:41;;;;;;;10.05;5.93;;;;;;;18.84;78.55;101776.22;5095358;28;20485;-68
2022/10/05 03:15:19;;;;;;;10.30;5.97;;;;;;;18.84;80.05;101776.22;5112743;28;20367;-68
2022/10/05 03:18:21;;;;;;;11.20;6.03;;;;;;;18.85;79.25;101775.06;5129446;27;20490;-68
2022/10/05 03:21:10;;;;;;;8.02;5.53;;;;;;;18.83;78.41;101774.56;5075204;28;20059;-69
2022/10/05 03:23:48;;;;;;;7.88;5.53;;;;;;;18.87;78.58;101778.38;5094856;28;20375;-69
2022/10/05 03:26:48;;;;;;;9.05;6.75;;;;;;;18.76;79.54;101774.97;5110323;28;20052;-68
2022/10/05 03:29:16;;;;;;;7.55;5.53;;;;;;;18.82;78.88;101784.03;5094406;28;20051;-69
2022/10/05 03:31:59;;;;;;;7.25;5.78;;;;;;;18.75;80.36;101776.09;5095564;28;20050;-69
2022/10/05 03:34:41;;;;;;;9.45;6.90;;;;;;;18.60;80.67;101782.75;5095592;28;20039;-69
2022/10/05 03:37:12;;;;;;;10.27;6.85;;;;;;;18.76;80.38;101781.34;5094845;28;20054;-69
2022/10/05 03:39:54;;;;;;;9.68;6.57;;;;;;;18.79;80.04;101780.75;5113271;28;20051;-68
2022/10/05 03:42:45;;;;;;;10.27;7.13;;;;;;;18.93;80.21;101786.28;5094377;28;20051;-68
2022/10/05 03:45:21;;;;;;;9.30;6.72;;;;;;;19.01;79.44;101792.25;5094309;28;20052;-69
2022/10/05 03:47:49;;;;;;;11.60;6.90;;;;;;;19.13;79.02;101795.38;5094839;28;20398;-69
2022/10/05 03:50:17;;;;;;;9.68;6.35;;;;;;;19.00;79.89;101802.53;5094558;28;20051;-68
2022/10/05 03:52:54;;;;;;;10.65;6.63;;;;;;;18.94;79.65;101801.81;5124672;27;20386;-68
2022/10/05 03:56:05;;;;;;;8.85;6.45;;;;;;;18.95;80.15;101794.28;5095058;28;20043;-68
2022/10/05 03:58:56;;;;;;;12.35;6.55;;;;;;;19.02;80.01;101796.66;5093804;28;20043;-69
2022/10/05 04:02:00;;;;;;;7.47;6.00;;;;;;;19.10;79.91;101800.72;5094503;28;20050;-69
2022/10/05 04:04:46;;;;;;;11.60;6.70;;;;;;;19.05;79.28;101796.91;5062794;28;20064;-68
2022/10/05 04:07:31;;;;;;;8.98;5.85;;;;;;;18.98;79.99;101793.69;5111874;28;20304;-69
2022/10/05 04:10:02;;;;;;;9.18;6.50;;;;;;;18.99;80.71;101789.78;5103514;28;20039;-69
2022/10/05 04:12:37;;;;;;;8.18;6.15;;;;;;;19.04;80.57;101798.03;5094163;28;20082;-68
2022/10/05 04:15:20;;;;;;;8.07;6.10;;;;;;;19.10;80.95;101797.94;5094767;28;20047;-69
2022/10/05 04:17:54;;;;;;;11.02;6.20;;;;;;;19.07;80.80;101791.06;5125582;27;20043;-69
2022/10/05 04:20:36;;;;;;;12.18;6.35;;;;;;;19.07;80.46;101793.84;5104513;28;20490;-68
2022/10/05 04:23:09;;;;;;;8.50;6.07;;;;;;;19.01;80.74;101797.81;5093596;28;20493;-68
2022/10/05 04:25:58;;;;;;;7.75;5.80;;;;;;;18.93;81.37;101791.81;5094373;28;20047;-68
2022/10/05 04:28:41;;;;;;;8.88;6.32;;;;;;;18.87;81.75;101804.16;5107463;28;20044;-68
2022/10/05 04:31:42;;;;;;;10.18;6.85;;;;;;;18.83;82.09;101796.75;5093483;28;20047;-68
2022/10/05 04:34:51;;;;;;;15.25;7.40;;;;;;;18.88;82.04;101791.13;5075102;28;20056;-69
2022/10/05 04:37:39;;;;;;;11.27;7.18;;;;;;;18.88;82.79;101793.88;5086566;28;20039;-68
2022/10/05 04:40:45;;;;;;;13.80;6.90;;;;;;;18.90;82.41;101788.84;5093587;28;20043;-68
2022/10/05 04:43:20;;;;;;;10.27;6.53;;;;;;;18.86;82.81;101790.63;5092726;28;20043;-68
2022/10/05 04:45:51;;;;;;;13.23;7.57;;;;;;;18.87;83.57;101792.25;5094457;28;20061;-68
2022/10/05 04:48:34;;;;;;;10.55;7.00;;;;;;;18.88;83.00;101793.88;5092503;28;20044;-69
2022/10/05 04:51:20;;;;;;;12.85;7.57;;;;;;;18.95;82.58;101785.97;5094350;28;20044;-69
2022/10/05 04:54:14;;;;;;;12.27;7.47;;;;;;;19.11;82.49;101797.59;5094385;28;20044;-68
2022/10/05 04:56:53;;;;;;;9.23;6.53;;;;;;;19.12;81.80;101787.34;5071849;28;20075;-68
2022/10/05 04:59:56;;;;;;;10.02;6.97;;;;;;;19.12;82.13;101787.34;5114166;28;20051;-68
2022/10/05 05:02:41;;;;;;;9.40;7.03;;;;;;;19.20;82.04;101801.31;5088969;28;20043;-68
2022/10/05 05:05:28;;;;;;;9.93;7.00;;;;;;;19.20;82.36;101794.94;5120247;28;20051;-68
2022/10/05 05:08:20;;;;;;;14.32;7.15;;;;;;;19.09;83.00;101793.50;5081202;28;20051;-68
2022/10/05 05:11:02;;;;;;;11.75;6.85;;;;;;;19.10;83.15;101806.25;5115153;28;20048;-68
2022/10/05 05:13:47;;;;;;;12.02;7.00;;;;;;;19.07;82.75;101808.50;5098093;28;20051;-68
2022/10/05 05:16:33;;;;;;;10.95;7.07;;;;;;;19.02;82.75;101811.34;5097582;28;20048;-66
2022/10/05 05:19:21;;;;;;;11.40;7.72;;;;;;;18.94;82.15;101809.31;5114728;28;20047;-69
2022/10/05 05:22:14;;;;;;;11.23;6.60;;;;;;;18.88;82.32;101808.59;5120216;27;20040;-68
2022/10/05 05:24:41;;;;;;;13.05;7.50;;;;;;;18.89;82.89;101812.16;5097815;28;20148;-67
2022/10/05 05:27:31;;;;;;;12.68;7.97;;;;;;;18.85;83.20;101819.44;5131036;27;20039;-67
2022/10/05 05:30:20;;;;;;;12.93;8.88;;;;;;;18.87;82.61;101825.53;5102366;28;20046;-66
2022/10/05 05:33:18;;;;;;;15.32;8.07;;;;;;;18.95;82.56;101824.81;5097551;28;20039;-67
2022/10/05 05:36:12;;;;;;;15.60;8.48;;;;;;;18.89;82.36;101828.81;5097197;28;20048;-66
2022/10/05 05:38:57;;;;;;;12.25;7.55;;;;;;;18.85;82.80;101833.31;5086195;28;20044;-67
2022/10/05 05:42:16;;;;;;;14.57;7.53;;;;;;;18.96;81.84;101833.97;5091088;28;20047;-67
2022/10/05 05:44:52;;;;;;;14.85;8.45;;;;;;;18.91;82.53;101840.41;5103940;28;20052;-85
2022/10/05 05:47:39;;;;;;;13.45;8.18;;;;;;;18.94;81.96;101837.88;5096274;28;20402;-67
2022/10/05 05:50:17;;;;;;;13.23;7.75;;;;;;;19.01;82.22;101842.19;5130328;27;20058;-67
2022/10/05 05:52:50;;;;;;;13.57;7.68;;;;;;;19.06;81.39;101834.59;5096980;28;20039;-67
2022/10/05 05:55:23;;;;;;;11.85;7.88;;;;;;;18.98;81.57;101849.16;5096484;28;20051;-67
2022/10/05 05:58:10;;;;;;;11.60;7.13;;;;;;;18.94;80.78;101845.34;5097155;28;20043;-67
2022/10/05 06:01:05;;;;;;;10.55;7.70;;;;;;;18.90;80.62;101844.31;5096661;28;20033;-67
2022/10/05 06:03:56;;;;;;;10.20;6.75;;;;;;;18.95;79.41;101841.44;5096719;28;20430;-67
2022/10/05 06:06:30;;;;;;;11.07;7.32;;;;;;;18.96;79.29;101840.31;5096205;28;20062;-67
2022/10/05 06:09:29;;;;;;;13.73;8.77;;;;;;;19.06;79.93;101842.94;5096829;28;20474;-67
2022/10/05 06:12:38;;;;;;;10.43;7.55;;;;;;;19.13;79.79;101844.47;5105544;28;20048;-67
2022/10/05 06:15:28;;;;;;;12.43;7.43;;;;;;;19.06;79.20;101851.25;5096736;28;20039;-67
2022/10/05 06:18:00;;;;;;;15.00;8.55;;;;;;;19.14;78.30;101857.22;5113762;28;20035;-68
2022/10/05 06:20:46;;;;;;;14.23;7.97;;;;;;;19.07;79.02;101852.88;5095890;28;20051;-68
2022/10/05 06:23:46;;;;;;;22.33;10.35;;;;;;;19.26;78.54;101865.84;5114940;28;20047;-68
2022/10/05 06:26:38;;;;;;;25.40;10.85;;;;;;;19.25;79.50;101875.31;5093126;28;20406;-68
2022/10/05 06:29:15;;;;;;;27.80;11.73;;;;;;;19.10;79.22;101872.84;5129230;27;20055;-68
2022/10/05 06:32:19;;;;;;;21.30;10.45;;;;;;;19.18;78.82;101872.13;5095311;28;20040;-68
2022/10/05 06:35:02;;;;;;;22.88;11.00;;;;;;;19.14;79.23;101877.47;5094139;28;20050;-67
2022/10/05 06:38:16;;;;;;;25.52;11.35;;;;;;;19.10;80.03;101884.75;5095812;28;20062;-67
2022/10/05 06:41:33;;;;;;;21.05;10.25;;;;;;;19.18;80.21;101875.72;5073131;28;20056;-67
2022/10/05 06:44:14;;;;;;;21.27;10.23;;;;;;;19.20;79.55;101881.78;5072552;28;20494;-67
2022/10/05 06:47:48;;;;;;;27.73;10.45;;;;;;;19.57;77.48;101881.91;5088123;28;20059;-67
2022/10/05 06:50:41;;;;;;;15.10;8.82;;;;;;;19.60;76.70;101884.03;5095584;28;20051;-67
2022/10/05 06:53:38;;;;;;;17.33;9.65;;;;;;;19.55;77.25;101880.56;5113761;28;20502;-66
2022/10/05 06:56:27;;;;;;;21.38;9.25;;;;;;;19.50;77.92;101877.88;5095479;28;20048;-66
2022/10/05 06:59:04;;;;;;;20.90;9.77;;;;;;;19.90;75.51;101891.19;5095402;28;20513;-66
2022/10/05 07:01:57;;;;;;;16.77;9.73;;;;;;;19.88;75.32;101884.00;5113401;28;20070;-66
2022/10/05 07:05:18;;;;;;;16.55;9.13;;;;;;;19.90;75.71;101893.97;5095748;28;20394;-66
2022/10/05 07:07:55;;;;;;;16.05;8.13;;;;;;;20.04;74.34;101893.97;5057203;28;20047;-66
2022/10/05 07:10:56;;;;;;;12.68;7.68;;;;;;;19.80;74.55;101895.03;5095278;28;20048;-66
2022/10/05 07:13:55;;;;;;;12.82;8.00;;;;;;;20.03;72.96;101904.25;5077188;28;20052;-66
2022/10/05 07:16:31;;;;;;;9.50;6.30;;;;;;;20.10;72.62;101898.28;5094344;28;20043;-66
2022/10/05 07:19:29;;;;;;;11.38;7.10;;;;;;;20.17;72.79;101895.03;5127841;27;20051;-66
2022/10/05 07:22:00;;;;;;;12.93;7.43;;;;;;;20.11;72.42;101902.69;5093275;28;20044;-66
2022/10/05 07:24:33;;;;;;;12.32;7.35;;;;;;;20.04;73.77;101896.75;5128324;27;20397;-66
2022/10/05 07:27:20;;;;;;;15.57;7.32;;;;;;;20.09;73.07;101897.44;5112642;28;20044;-66
2022/10/05 07:29:51;;;;;;;12.23;7.35;;;;;;;20.06;72.44;101906.41;5094529;28;20055;-66
2022/10/05 07:32:39;;;;;;;11.50;7.60;;;;;;;20.21;72.55;101894.13;5128445;27;20055;-65
2022/10/05 07:38:45;;;;;;;18.90;9.43;;;;;;;20.45;73.39;101904.13;5112257;28;20047;-66
2022/10/05 07:42:05;;;;;;;15.85;9.82;;;;;;;20.51;72.89;101918.72;5094162;28;20044;-66
2022/10/05 07:44:44;;;;;;;19.58;10.45;;;;;;;20.55;73.96;101916.94;5051744;28;20055;-66
2022/10/05 07:47:39;;;;;;;22.38;10.68;;;;;;;21.06;73.67;101916.78;5110989;28;20453;-66
2022/10/05 07:50:21;;;;;;;19.17;11.82;;;;;;;20.92;71.26;101917.72;5093728;28;20047;-66
2022/10/05 07:53:12;;;;;;;16.90;11.15;;;;;;;21.27;70.97;101911.50;5094511;28;20044;-67
2022/10/05 07:55:53;;;;;;;20.92;10.75;;;;;;;21.52;69.77;101911.09;5094718;28;20066;-67
2022/10/05 07:58:28;;;;;;;21.55;11.13;;;;;;;21.88;68.63;101910.06;5093515;28;20043;-67
2022/10/05 08:01:03;;;;;;;22.70;11.40;;;;;;;22.12;68.45;101919.91;5112623;28;20073;-70
2022/10/05 08:03:56;;;;;;;21.13;11.55;;;;;;;21.95;68.63;101915.97;5128516;27;20381;-71
2022/10/05 08:06:36;;;;;;;26.73;11.85;;;;;;;22.23;67.69;101912.03;5111096;28;20054;-71
2022/10/05 08:09:36;;;;;;;18.30;10.98;;;;;;;22.33;66.97;101917.28;5112359;28;20063;-71
2022/10/05 08:12:30;;;;;;;17.38;11.38;;;;;;;22.01;67.38;101911.88;5111521;28;20043;-71
2022/10/05 08:15:24;;;;;;;20.73;11.23;;;;;;;22.23;67.79;101910.09;5112216;28;20043;-70
2022/10/05 08:17:59;;;;;;;19.10;10.55;;;;;;;22.29;66.28;101914.34;5111914;28;20044;-70
2022/10/05 08:20:47;;;;;;;16.30;9.90;;;;;;;22.18;65.70;101920.59;5111637;28;20044;-71
2022/10/05 08:23:17;;;;;;;11.77;7.97;;;;;;;22.08;63.01;101916.97;5111279;28;20054;-71
2022/10/05 08:26:10;;;;;;;11.75;7.90;;;;;;;21.77;63.67;101911.50;5112303;28;20047;-73
2022/10/05 08:28:45;;;;;;;12.55;8.00;;;;;;;21.18;65.87;101917.03;5094221;28;20051;-69
2022/10/05 08:31:23;;;;;;;12.55;8.35;;;;;;;21.04;67.80;101917.13;5102159;28;20040;-70
2022/10/05 08:34:21;;;;;;;13.15;7.45;;;;;;;21.43;66.49;101914.69;5110098;28;20059;-69
2022/10/05 08:36:54;;;;;;;15.30;8.45;;;;;;;21.02;66.96;101921.38;5111802;28;20054;-69
2022/10/05 08:39:27;;;;;;;12.43;8.60;;;;;;;20.79;67.60;101924.16;5111815;28;20051;-68
2022/10/05 08:42:27;;;;;;;13.27;8.13;;;;;;;21.35;66.75;101929.38;5077033;28;20054;-69
2022/10/05 08:45:25;;;;;;;13.20;7.40;;;;;;;21.33;67.61;101923.31;5098388;28;20047;-70
2022/10/05 08:48:08;;;;;;;10.13;7.72;;;;;;;21.59;67.72;101922.56;5112114;28;20056;-70
2022/10/05 08:50:54;;;;;;;12.02;7.30;;;;;;;21.55;67.70;101925.19;5111721;28;20374;-70
2022/10/05 08:53:31;;;;;;;13.27;7.53;;;;;;;21.75;67.47;101936.91;5111683;28;20406;-70
2022/10/05 08:56:07;;;;;;;16.25;8.50;;;;;;;21.94;65.02;101933.03;5098829;28;20040;-70
2022/10/05 08:58:41;;;;;;;15.45;8.88;;;;;;;21.91;64.96;101940.06;5111074;28;20051;-70
2022/10/05 09:01:20;;;;;;;12.98;8.25;;;;;;;22.36;65.54;101949.28;5112016;28;20394;-68
2022/10/05 09:04:19;;;;;;;13.40;8.95;;;;;;;22.33;64.55;101944.38;5108381;28;20055;-68
2022/10/05 09:07:31;;;;;;;17.90;8.77;;;;;;;22.64;63.64;101951.78;5107679;28;20074;-74
2022/10/05 09:10:25;;;;;;;18.38;8.90;;;;;;;22.70;62.79;101950.44;5090785;28;20052;-73
2022/10/05 09:13:32;;;;;;;12.68;8.63;;;;;;;22.99;62.46;101948.94;5090716;28;20405;-75
2022/10/05 09:16:15;;;;;;;12.90;8.70;;;;;;;22.79;62.18;101948.44;5089623;28;20048;-75
2022/10/05 09:19:13;;;;;;;15.15;8.35;;;;;;;23.28;58.69;101949.31;5090904;28;20380;-75
2022/10/05 09:21:45;;;;;;;15.07;8.70;;;;;;;22.90;62.36;101957.31;5091118;28;20040;-74
2022/10/05 09:24:13;;;;;;;11.68;7.78;;;;;;;22.36;64.58;101950.13;5091405;28;20055;-74
2022/10/05 09:27:08;;;;;;;10.30;7.50;;;;;;;22.67;63.39;101956.69;5089681;28;20055;-75
2022/10/05 09:30:01;;;;;;;12.32;7.47;;;;;;;22.67;64.14;101949.16;5074868;28;20059;-74
2022/10/05 09:32:43;;;;;;;10.13;7.50;;;;;;;22.58;63.79;101953.09;5090650;28;20509;-76
2022/10/05 09:35:48;;;;;;;11.13;7.80;;;;;;;22.90;63.10;101951.72;5090133;28;20055;-75
2022/10/05 09:38:35;;;;;;;13.30;7.85;;;;;;;22.78;64.05;101954.38;5091666;28;20808;-74
2022/10/05 09:41:28;;;;;;;8.13;5.88;;;;;;;22.48;64.39;101952.22;5111563;28;20036;-74
2022/10/05 09:44:30;;;;;;;9.32;5.80;;;;;;;22.98;64.74;101960.41;5097363;28;20043;-74
2022/10/05 09:47:22;;;;;;;7.35;5.95;;;;;;;22.97;63.37;101962.38;5110934;28;20054;-71
2022/10/05 09:50:28;;;;;;;9.38;5.93;;;;;;;23.39;63.53;101958.16;5111699;28;20058;-71
2022/10/05 09:53:04;;;;;;;8.30;5.40;;;;;;;23.56;62.27;101957.28;5079616;28;20580;-71
2022/10/05 09:56:04;;;;;;;9.85;6.18;;;;;;;23.52;61.65;101943.19;5112134;28;20497;-71
2022/10/05 09:58:32;;;;;;;10.10;5.82;;;;;;;23.65;62.01;101951.66;5114638;28;20039;-71
2022/10/05 10:01:33;;;;;;;11.90;6.43;;;;;;;23.91;62.38;101953.47;5114497;28;20039;-71
2022/10/05 10:04:08;;;;;;;7.32;5.03;;;;;;;23.62;62.43;101953.16;5114799;28;20506;-71
2022/10/05 10:07:01;;;;;;;8.70;5.65;;;;;;;24.09;60.87;101949.44;5096832;28;20062;-71
2022/10/05 10:09:56;;;;;;;8.38;4.78;;;;;;;24.38;59.74;101950.53;5114430;28;20047;-71
2022/10/05 10:12:33;;;;;;;6.22;4.95;;;;;;;24.78;58.36;101945.56;5115150;28;20052;-71
2022/10/05 10:15:22;;;;;;;8.63;5.00;;;;;;;25.16;56.10;101943.69;5102157;28;20039;-71
2022/10/05 10:17:56;;;;;;;8.02;4.90;;;;;;;25.28;55.55;101948.50;5079630;28;20070;-72
2022/10/05 10:20:44;;;;;;;;;;;;;;;24.93;55.21;101953.31;5096915;28;20051;-71
2022/10/05 10:23:41;;;;;;;8.75;4.75;;;;;;;24.80;55.87;101955.25;5085145;28;19920;-71
2022/10/05 10:26:21;;;;;;;7.05;5.45;;;;;;;25.40;55.31;101954.09;5071107;28;20055;-72
2022/10/05 10:29:01;;;;;;;7.55;5.43;;;;;;;25.15;55.11;101942.88;5113874;28;20052;-72
2022/10/05 10:32:02;;;;;;;6.60;5.13;;;;;;;25.39;54.40;101943.22;5113868;28;20730;-72
2022/10/05 10:35:14;;;;;;;8.63;5.43;;;;;;;24.62;56.52;101949.00;5114394;28;20055;-72
2022/10/05 10:38:22;;;;;;;8.23;5.47;;;;;;;24.51;57.16;101948.59;5106388;28;20040;-72
2022/10/05 10:41:14;;;;;;;8.43;6.55;;;;;;;24.63;56.27;101953.41;5111954;28;20035;-72
2022/10/05 10:44:05;;;;;;;11.43;6.60;;;;;;;23.94;59.70;101955.59;5096112;28;20044;-71
2022/10/05 10:47:03;;;;;;;10.20;6.97;;;;;;;23.97;57.68;101949.31;5113989;28;20504;-71
2022/10/05 10:50:06;;;;;;;9.50;6.18;;;;;;;24.51;56.85;101951.41;5103692;28;20044;-71
2022/10/05 10:53:12;;;;;;;8.52;6.57;;;;;;;24.45;57.31;101947.19;5114101;28;20059;-70
2022/10/05 10:55:44;;;;;;;9.57;6.13;;;;;;;24.57;59.43;101952.00;5095849;28;20089;-70
2022/10/05 10:58:46;;;;;;;11.38;6.05;;;;;;;24.60;56.94;101956.09;5114066;28;20066;-71
2022/10/05 11:01:45;;;;;;;9.77;5.90;;;;;;;24.52;58.06;101955.84;5102109;28;20056;-71
2022/10/05 11:05:01;;;;;;;12.52;6.80;;;;;;;24.25;57.31;101951.63;5113878;28;20052;-70
2022/10/05 11:07:55;;;;;;;10.07;5.88;;;;;;;24.43;57.36;101955.09;5050142;28;20056;-70
2022/10/05 11:10:33;;;;;;;11.68;6.63;;;;;;;24.47;57.20;101944.84;5106952;28;20058;-71
2022/10/05 11:13:26;;;;;;;9.30;6.00;;;;;;;24.01;57.39;101947.50;5095761;28;20050;-71
2022/10/05 11:16:15;;;;;;;8.30;5.80;;;;;;;23.66;59.49;101945.72;5113556;28;20071;-70
2022/10/05 11:19:22;;;;;;;8.82;5.82;;;;;;;23.61;59.89;101941.16;5113211;28;20048;-70
2022/10/05 11:22:26;;;;;;;8.43;6.07;;;;;;;23.56;60.41;101937.72;5105916;28;20040;-69
2022/10/05 11:25:02;;;;;;;;;;;;;;;23.66;59.09;101939.31;5100851;28;20031;-70
2022/10/05 11:27:47;;;;;;;9.57;5.63;;;;;;;23.66;59.49;101936.53;5113044;28;19997;-70
2022/10/05 11:30:29;;;;;;;11.90;6.80;;;;;;;23.57;59.52;101933.78;5113239;28;20046;-71
2022/10/05 11:33:12;;;;;;;10.60;5.95;;;;;;;23.58;59.78;101941.84;5095127;28;20501;-71
2022/10/05 11:36:09;;;;;;;8.65;6.18;;;;;;;23.40;61.71;101937.50;5113096;28;20055;-70
2022/10/05 11:39:03;;;;;;;8.93;5.95;;;;;;;23.40;60.75;101938.28;5100245;28;20043;-70
2022/10/05 11:41:52;;;;;;;14.15;6.85;;;;;;;23.56;59.95;101932.16;5094225;28;20052;-71
2022/10/05 11:45:01;;;;;;;10.68;6.28;;;;;;;23.54;61.00;101926.06;5101981;28;20048;-70
2022/10/05 11:47:50;;;;;;;12.10;6.55;;;;;;;23.62;59.93;101919.63;5112779;28;20051;-70
2022/10/05 11:50:32;;;;;;;9.63;6.20;;;;;;;23.64;60.36;101922.88;5073663;28;20051;-70
2022/10/05 11:53:12;;;;;;;12.10;6.68;;;;;;;23.78;58.95;101916.22;5112847;28;20054;-70
2022/10/05 11:56:06;;;;;;;7.82;5.68;;;;;;;23.77;59.94;101921.00;5112828;28;20520;-82
2022/10/05 11:58:45;;;;;;;7.47;5.32;;;;;;;23.65;60.91;101921.72;5112843;28;20421;-81
2022/10/05 12:01:33;;;;;;;7.38;4.68;;;;;;;23.56;61.34;101918.19;5104718;28;20048;-81
2022/10/05 12:04:19;;;;;;;10.88;5.65;;;;;;;23.45;60.16;101914.94;5092059;28;20044;-83
2022/10/05 12:07:20;;;;;;;8.85;5.80;;;;;;;23.40;60.92;101907.56;5112113;28;20040;-83
2022/10/05 12:12:50;;;;;;;8.18;6.00;;;;;;;23.42;60.33;101919.22;5111034;28;20043;-82
2022/10/05 12:15:27;;;;;;;11.55;5.82;;;;;;;23.62;60.18;101903.66;5112753;28;20056;-84
2022/10/05 12:18:30;;;;;;;10.75;6.57;;;;;;;23.68;60.20;101904.28;5111455;28;20059;-82
2022/10/05 12:21:09;;;;;;;10.10;6.82;;;;;;;23.44;59.81;101905.75;5087704;28;20047;-82
2022/10/05 12:23:54;;;;;;;9.02;6.03;;;;;;;23.59;60.41;101906.31;5112594;28;20039;-83
2022/10/05 12:26:33;;;;;;;;;;;;;;;23.52;60.32;101903.25;5112600;28;20054;-79
2022/10/05 12:29:06;;;;;;;8.77;5.10;;;;;;;23.60;60.51;101900.41;5088902;28;19924;-81
2022/10/05 12:31:37;;;;;;;15.38;6.55;;;;;;;23.74;61.15;101899.31;5098451;28;20040;-82
2022/10/05 12:34:17;;;;;;;8.02;5.68;;;;;;;23.66;60.39;101900.22;5106804;28;20062;-82
2022/10/05 12:36:52;;;;;;;10.65;7.50;;;;;;;23.57;59.85;101889.91;5097609;28;20039;-82
2022/10/05 12:39:37;;;;;;;13.32;5.95;;;;;;;23.82;59.89;101890.06;5110085;28;20055;-82
2022/10/05 12:42:14;;;;;;;;;;;;;;;23.75;59.75;101886.97;5108021;28;20035;-82
2022/10/05 12:45:12;;;;;;;9.13;6.07;;;;;;;23.65;60.26;101885.41;5108475;28;20370;-81
2022/10/05 12:47:59;;;;;;;11.60;7.28;;;;;;;23.59;59.88;101889.56;5106557;28;20044;-84
2022/10/05 12:50:47;;;;;;;12.25;6.13;;;;;;;23.66;60.29;101886.22;5106407;28;20062;-83
2022/10/05 12:53:53;;;;;;;8.75;6.18;;;;;;;23.64;59.65;101891.34;5093409;28;20051;-83